<?xml version="1.0" encoding="UTF-8" standalone="no" ?><gpx xmlns="http://www.topografix.com/GPX/1/1" xmlns:gpxx="http://www.garmin.com/xmlschemas/GpxExtensions/v3" xmlns:wptx1="http://www.garmin.com/xmlschemas/WaypointExtension/v1" xmlns:gpxtpx="http://www.garmin.com/xmlschemas/TrackPointExtension/v1" creator="GuideVTT.com" version="1.1" xmlns:xsi="http://www.w3.org/2001/XMLSchema-instance" xsi:schemaLocation="http://www.topografix.com/GPX/1/1 http://www.topografix.com/GPX/1/1/gpx.xsd http://www.garmin.com/xmlschemas/GpxExtensions/v3 http://www8.garmin.com/xmlschemas/GpxExtensionsv3.xsd http://www.garmin.com/xmlschemas/WaypointExtension/v1 http://www8.garmin.com/xmlschemas/WaypointExtensionv1.xsd http://www.garmin.com/xmlschemas/TrackPointExtension/v1 http://www.garmin.com/xmlschemas/TrackPointExtensionv1.xsd">
<metadata><link href="http://www.garmin.com"><text>Garmin International</text></link><time>2013-06-22T15:13:50Z</time></metadata>
<trk><name>21oct.gpx</name><extensions><gpxx:TrackExtension><gpxx:DisplayColor>Cyan</gpxx:DisplayColor></gpxx:TrackExtension></extensions><trkseg>
<trkpt lat="43.17675000" lon="0.28706700"><ele>516</ele><time>2007-10-21T13:10:18Z</time></trkpt>
<trkpt lat="43.17666700" lon="0.28740000"><ele>517</ele><time>2007-10-21T13:10:26Z</time></trkpt>
<trkpt lat="43.17655000" lon="0.28848300"><ele>518</ele><time>2007-10-21T13:10:57Z</time></trkpt>
<trkpt lat="43.17650000" lon="0.28906700"><ele>518</ele><time>2007-10-21T13:11:13Z</time></trkpt>
<trkpt lat="43.17645000" lon="0.28951700"><ele>520</ele><time>2007-10-21T13:11:25Z</time></trkpt>
<trkpt lat="43.17620000" lon="0.29006700"><ele>533</ele><time>2007-10-21T13:11:45Z</time></trkpt>
<trkpt lat="43.17601700" lon="0.29065000"><ele>535</ele><time>2007-10-21T13:12:04Z</time></trkpt>
<trkpt lat="43.17591700" lon="0.29145000"><ele>532</ele><time>2007-10-21T13:12:28Z</time></trkpt>
<trkpt lat="43.17308300" lon="0.29050000"><ele>523</ele><time>2007-10-21T13:13:33Z</time></trkpt>
<trkpt lat="43.17280000" lon="0.29021700"><ele>521</ele><time>2007-10-21T13:13:38Z</time></trkpt>
<trkpt lat="43.17253300" lon="0.29056700"><ele>522</ele><time>2007-10-21T13:13:45Z</time></trkpt>
<trkpt lat="43.17255000" lon="0.29118300"><ele>524</ele><time>2007-10-21T13:13:58Z</time></trkpt>
<trkpt lat="43.17275000" lon="0.29240000"><ele>527</ele><time>2007-10-21T13:14:29Z</time></trkpt>
<trkpt lat="43.17273300" lon="0.29333300"><ele>529</ele><time>2007-10-21T13:14:49Z</time></trkpt>
<trkpt lat="43.17246700" lon="0.29608300"><ele>526</ele><time>2007-10-21T13:15:32Z</time></trkpt>
<trkpt lat="43.17231700" lon="0.29676700"><ele>524</ele><time>2007-10-21T13:15:41Z</time></trkpt>
<trkpt lat="43.17243300" lon="0.29985000"><ele>523</ele><time>2007-10-21T13:16:23Z</time></trkpt>
<trkpt lat="43.17258300" lon="0.30216700"><ele>528</ele><time>2007-10-21T13:17:09Z</time></trkpt>
<trkpt lat="43.17305000" lon="0.30296700"><ele>531</ele><time>2007-10-21T13:17:31Z</time></trkpt>
<trkpt lat="43.17325000" lon="0.30371700"><ele>531</ele><time>2007-10-21T13:17:48Z</time></trkpt>
<trkpt lat="43.17358300" lon="0.30443300"><ele>528</ele><time>2007-10-21T13:18:05Z</time></trkpt>
<trkpt lat="43.17395000" lon="0.30488300"><ele>525</ele><time>2007-10-21T13:18:15Z</time></trkpt>
<trkpt lat="43.17441700" lon="0.30526700"><ele>523</ele><time>2007-10-21T13:18:26Z</time></trkpt>
<trkpt lat="43.17540000" lon="0.30690000"><ele>518</ele><time>2007-10-21T13:18:56Z</time></trkpt>
<trkpt lat="43.17576700" lon="0.30726700"><ele>519</ele><time>2007-10-21T13:19:05Z</time></trkpt>
<trkpt lat="43.17608300" lon="0.30888300"><ele>525</ele><time>2007-10-21T13:19:38Z</time></trkpt>
<trkpt lat="43.17681700" lon="0.30856700"><ele>525</ele><time>2007-10-21T13:19:57Z</time></trkpt>
<trkpt lat="43.17871700" lon="0.30795000"><ele>527</ele><time>2007-10-21T13:20:38Z</time></trkpt>
<trkpt lat="43.17913300" lon="0.30916700"><ele>530</ele><time>2007-10-21T13:21:02Z</time></trkpt>
<trkpt lat="43.18123300" lon="0.30935000"><ele>522</ele><time>2007-10-21T13:21:41Z</time></trkpt>
<trkpt lat="43.18228300" lon="0.31031700"><ele>526</ele><time>2007-10-21T13:22:07Z</time></trkpt>
<trkpt lat="43.18328300" lon="0.31093300"><ele>523</ele><time>2007-10-21T13:22:28Z</time></trkpt>
<trkpt lat="43.18393300" lon="0.31105000"><ele>521</ele><time>2007-10-21T13:22:38Z</time></trkpt>
<trkpt lat="43.18611700" lon="0.31095000"><ele>519</ele><time>2007-10-21T13:23:12Z</time></trkpt>
<trkpt lat="43.18630000" lon="0.31125000"><ele>517</ele><time>2007-10-21T13:23:18Z</time></trkpt>
<trkpt lat="43.18628300" lon="0.31166700"><ele>513</ele><time>2007-10-21T13:23:25Z</time></trkpt>
<trkpt lat="43.18598300" lon="0.31266700"><ele>502</ele><time>2007-10-21T13:23:37Z</time></trkpt>
<trkpt lat="43.18591700" lon="0.31316700"><ele>499</ele><time>2007-10-21T13:23:43Z</time></trkpt>
<trkpt lat="43.18628300" lon="0.31338300"><ele>492</ele><time>2007-10-21T13:23:54Z</time></trkpt>
<trkpt lat="43.18660000" lon="0.31500000"><ele>473</ele><time>2007-10-21T13:24:16Z</time></trkpt>
<trkpt lat="43.18676700" lon="0.31598300"><ele>464</ele><time>2007-10-21T13:24:27Z</time></trkpt>
<trkpt lat="43.18663300" lon="0.31680000"><ele>457</ele><time>2007-10-21T13:24:37Z</time></trkpt>
<trkpt lat="43.18650000" lon="0.31723300"><ele>452</ele><time>2007-10-21T13:24:43Z</time></trkpt>
<trkpt lat="43.18650000" lon="0.31791700"><ele>447</ele><time>2007-10-21T13:24:51Z</time></trkpt>
<trkpt lat="43.18628300" lon="0.31861700"><ele>446</ele><time>2007-10-21T13:25:00Z</time></trkpt>
<trkpt lat="43.18615000" lon="0.31930000"><ele>443</ele><time>2007-10-21T13:25:08Z</time></trkpt>
<trkpt lat="43.18618300" lon="0.31988300"><ele>438</ele><time>2007-10-21T13:25:15Z</time></trkpt>
<trkpt lat="43.18608300" lon="0.32035000"><ele>432</ele><time>2007-10-21T13:25:22Z</time></trkpt>
<trkpt lat="43.18583300" lon="0.32076700"><ele>432</ele><time>2007-10-21T13:25:28Z</time></trkpt>
<trkpt lat="43.18560000" lon="0.32171700"><ele>429</ele><time>2007-10-21T13:25:43Z</time></trkpt>
<trkpt lat="43.18555000" lon="0.32266700"><ele>422</ele><time>2007-10-21T13:25:58Z</time></trkpt>
<trkpt lat="43.18525000" lon="0.32365000"><ele>417</ele><time>2007-10-21T13:26:12Z</time></trkpt>
<trkpt lat="43.18495000" lon="0.32355000"><ele>415</ele><time>2007-10-21T13:26:19Z</time></trkpt>
<trkpt lat="43.18390000" lon="0.32341700"><ele>420</ele><time>2007-10-21T13:26:45Z</time></trkpt>
<trkpt lat="43.18350000" lon="0.32323300"><ele>423</ele><time>2007-10-21T13:26:57Z</time></trkpt>
<trkpt lat="43.18298300" lon="0.32283300"><ele>421</ele><time>2007-10-21T13:27:11Z</time></trkpt>
<trkpt lat="43.18255000" lon="0.32295000"><ele>425</ele><time>2007-10-21T13:27:21Z</time></trkpt>
<trkpt lat="43.18188300" lon="0.32315000"><ele>420</ele><time>2007-10-21T13:27:35Z</time></trkpt>
<trkpt lat="43.18105000" lon="0.32308300"><ele>418</ele><time>2007-10-21T13:27:46Z</time></trkpt>
<trkpt lat="43.18003300" lon="0.32265000"><ele>421</ele><time>2007-10-21T13:28:07Z</time></trkpt>
<trkpt lat="43.17953300" lon="0.32228300"><ele>421</ele><time>2007-10-21T13:28:19Z</time></trkpt>
<trkpt lat="43.17795000" lon="0.32175000"><ele>427</ele><time>2007-10-21T13:28:50Z</time></trkpt>
<trkpt lat="43.17690000" lon="0.32093300"><ele>439</ele><time>2007-10-21T13:29:33Z</time></trkpt>
<trkpt lat="43.17428300" lon="0.32073300"><ele>450</ele><time>2007-10-21T13:30:49Z</time></trkpt>
<trkpt lat="43.17396700" lon="0.32036700"><ele>461</ele><time>2007-10-21T13:31:08Z</time></trkpt>
<trkpt lat="43.17385000" lon="0.32010000"><ele>464</ele><time>2007-10-21T13:31:19Z</time></trkpt>
<trkpt lat="43.17360000" lon="0.31970000"><ele>471</ele><time>2007-10-21T13:31:39Z</time></trkpt>
<trkpt lat="43.17356700" lon="0.32008300"><ele>480</ele><time>2007-10-21T13:32:04Z</time></trkpt>
<trkpt lat="43.17343300" lon="0.32030000"><ele>477</ele><time>2007-10-21T13:32:20Z</time></trkpt>
<trkpt lat="43.17316700" lon="0.32023300"><ele>478</ele><time>2007-10-21T13:32:41Z</time></trkpt>
<trkpt lat="43.17208300" lon="0.31981700"><ele>487</ele><time>2007-10-21T13:33:52Z</time></trkpt>
<trkpt lat="43.17141700" lon="0.31931700"><ele>490</ele><time>2007-10-21T13:34:28Z</time></trkpt>
<trkpt lat="43.17113300" lon="0.31926700"><ele>489</ele><time>2007-10-21T13:34:45Z</time></trkpt>
<trkpt lat="43.17080000" lon="0.31908300"><ele>491</ele><time>2007-10-21T13:35:03Z</time></trkpt>
<trkpt lat="43.17055000" lon="0.31883300"><ele>492</ele><time>2007-10-21T13:35:16Z</time></trkpt>
<trkpt lat="43.17033300" lon="0.31838300"><ele>503</ele><time>2007-10-21T13:35:36Z</time></trkpt>
<trkpt lat="43.17010000" lon="0.31798300"><ele>511</ele><time>2007-10-21T13:35:56Z</time></trkpt>
<trkpt lat="43.16838300" lon="0.31821700"><ele>505</ele><time>2007-10-21T13:36:50Z</time></trkpt>
<trkpt lat="43.16783300" lon="0.31823300"><ele>504</ele><time>2007-10-21T13:37:05Z</time></trkpt>
<trkpt lat="43.16728300" lon="0.31845000"><ele>506</ele><time>2007-10-21T13:37:22Z</time></trkpt>
<trkpt lat="43.16553300" lon="0.31951700"><ele>509</ele><time>2007-10-21T13:38:28Z</time></trkpt>
<trkpt lat="43.16470000" lon="0.32006700"><ele>514</ele><time>2007-10-21T13:39:04Z</time></trkpt>
<trkpt lat="43.16441700" lon="0.32035000"><ele>518</ele><time>2007-10-21T13:39:17Z</time></trkpt>
<trkpt lat="43.16333300" lon="0.32121700"><ele>524</ele><time>2007-10-21T13:40:00Z</time></trkpt>
<trkpt lat="43.15938300" lon="0.32336700"><ele>520</ele><time>2007-10-21T13:41:50Z</time></trkpt>
<trkpt lat="43.15756700" lon="0.32391700"><ele>521</ele><time>2007-10-21T13:42:32Z</time></trkpt>
<trkpt lat="43.15716700" lon="0.32420000"><ele>521</ele><time>2007-10-21T13:42:42Z</time></trkpt>
<trkpt lat="43.15610000" lon="0.32483300"><ele>519</ele><time>2007-10-21T13:42:58Z</time></trkpt>
<trkpt lat="43.15573300" lon="0.32495000"><ele>523</ele><time>2007-10-21T13:43:11Z</time></trkpt>
<trkpt lat="43.15525000" lon="0.32525000"><ele>537</ele><time>2007-10-21T13:43:52Z</time></trkpt>
<trkpt lat="43.15506700" lon="0.32546700"><ele>541</ele><time>2007-10-21T13:44:10Z</time></trkpt>
<trkpt lat="43.15498300" lon="0.32583300"><ele>545</ele><time>2007-10-21T13:44:28Z</time></trkpt>
<trkpt lat="43.15518300" lon="0.32736700"><ele>554</ele><time>2007-10-21T13:45:26Z</time></trkpt>
<trkpt lat="43.15440000" lon="0.32756700"><ele>558</ele><time>2007-10-21T13:45:56Z</time></trkpt>
<trkpt lat="43.15371700" lon="0.32778300"><ele>560</ele><time>2007-10-21T13:46:16Z</time></trkpt>
<trkpt lat="43.15265000" lon="0.32745000"><ele>560</ele><time>2007-10-21T13:46:47Z</time></trkpt>
<trkpt lat="43.14801700" lon="0.32930000"><ele>565</ele><time>2007-10-21T13:48:48Z</time></trkpt>
<trkpt lat="43.14698300" lon="0.32930000"><ele>569</ele><time>2007-10-21T13:49:22Z</time></trkpt>
<trkpt lat="43.14638300" lon="0.32906700"><ele>573</ele><time>2007-10-21T13:49:45Z</time></trkpt>
<trkpt lat="43.14213300" lon="0.32831700"><ele>578</ele><time>2007-10-21T13:51:35Z</time></trkpt>
<trkpt lat="43.14140000" lon="0.33378300"><ele>562</ele><time>2007-10-21T13:52:49Z</time></trkpt>
<trkpt lat="43.14073300" lon="0.33421700"><ele>558</ele><time>2007-10-21T13:53:02Z</time></trkpt>
<trkpt lat="43.14056700" lon="0.33480000"><ele>557</ele><time>2007-10-21T13:53:11Z</time></trkpt>
<trkpt lat="43.14041700" lon="0.33505000"><ele>546</ele><time>2007-10-21T13:53:20Z</time></trkpt>
<trkpt lat="43.14018300" lon="0.33513300"><ele>547</ele><time>2007-10-21T13:53:27Z</time></trkpt>
<trkpt lat="43.13975000" lon="0.33511700"><ele>547</ele><time>2007-10-21T13:53:38Z</time></trkpt>
<trkpt lat="43.13950000" lon="0.33518300"><ele>551</ele><time>2007-10-21T13:53:46Z</time></trkpt>
<trkpt lat="43.13895000" lon="0.33515000"><ele>541</ele><time>2007-10-21T13:54:04Z</time></trkpt>
<trkpt lat="43.13835000" lon="0.33508300"><ele>552</ele><time>2007-10-21T13:54:25Z</time></trkpt>
<trkpt lat="43.13783300" lon="0.33513300"><ele>555</ele><time>2007-10-21T13:54:41Z</time></trkpt>
<trkpt lat="43.13740000" lon="0.33496700"><ele>557</ele><time>2007-10-21T13:54:55Z</time></trkpt>
<trkpt lat="43.13711700" lon="0.33461700"><ele>557</ele><time>2007-10-21T13:55:02Z</time></trkpt>
<trkpt lat="43.13646700" lon="0.33441700"><ele>570</ele><time>2007-10-21T13:55:30Z</time></trkpt>
<trkpt lat="43.13591700" lon="0.33420000"><ele>577</ele><time>2007-10-21T13:55:49Z</time></trkpt>
<trkpt lat="43.13548300" lon="0.33395000"><ele>587</ele><time>2007-10-21T13:56:09Z</time></trkpt>
<trkpt lat="43.13516700" lon="0.33380000"><ele>584</ele><time>2007-10-21T13:56:21Z</time></trkpt>
<trkpt lat="43.13496700" lon="0.33370000"><ele>583</ele><time>2007-10-21T13:56:30Z</time></trkpt>
<trkpt lat="43.13461700" lon="0.33335000"><ele>585</ele><time>2007-10-21T13:56:45Z</time></trkpt>
<trkpt lat="43.13438300" lon="0.33283300"><ele>582</ele><time>2007-10-21T13:56:57Z</time></trkpt>
<trkpt lat="43.13450000" lon="0.33243300"><ele>575</ele><time>2007-10-21T13:57:06Z</time></trkpt>
<trkpt lat="43.13465000" lon="0.33175000"><ele>561</ele><time>2007-10-21T13:57:24Z</time></trkpt>
<trkpt lat="43.13475000" lon="0.33130000"><ele>557</ele><time>2007-10-21T13:57:37Z</time></trkpt>
<trkpt lat="43.13470000" lon="0.33080000"><ele>558</ele><time>2007-10-21T13:57:53Z</time></trkpt>
<trkpt lat="43.13481700" lon="0.33046700"><ele>560</ele><time>2007-10-21T13:58:05Z</time></trkpt>
<trkpt lat="43.13523300" lon="0.33013300"><ele>564</ele><time>2007-10-21T13:58:27Z</time></trkpt>
<trkpt lat="43.13653300" lon="0.32990000"><ele>575</ele><time>2007-10-21T13:59:32Z</time></trkpt>
<trkpt lat="43.13685000" lon="0.32981700"><ele>579</ele><time>2007-10-21T13:59:52Z</time></trkpt>
<trkpt lat="43.13703300" lon="0.32970000"><ele>581</ele><time>2007-10-21T14:00:02Z</time></trkpt>
<trkpt lat="43.13705000" lon="0.32911700"><ele>581</ele><time>2007-10-21T14:00:17Z</time></trkpt>
<trkpt lat="43.13696700" lon="0.32848300"><ele>579</ele><time>2007-10-21T14:00:28Z</time></trkpt>
<trkpt lat="43.13668300" lon="0.32821700"><ele>579</ele><time>2007-10-21T14:00:37Z</time></trkpt>
<trkpt lat="43.13505000" lon="0.32816700"><ele>578</ele><time>2007-10-21T14:01:04Z</time></trkpt>
<trkpt lat="43.13190000" lon="0.32888300"><ele>582</ele><time>2007-10-21T14:01:54Z</time></trkpt>
<trkpt lat="43.13058300" lon="0.32950000"><ele>586</ele><time>2007-10-21T14:02:19Z</time></trkpt>
<trkpt lat="43.13091700" lon="0.33123300"><ele>573</ele><time>2007-10-21T14:02:40Z</time></trkpt>
<trkpt lat="43.13040000" lon="0.33180000"><ele>570</ele><time>2007-10-21T14:02:52Z</time></trkpt>
<trkpt lat="43.13015000" lon="0.33215000"><ele>564</ele><time>2007-10-21T14:03:01Z</time></trkpt>
<trkpt lat="43.13033300" lon="0.33258300"><ele>558</ele><time>2007-10-21T14:03:09Z</time></trkpt>
<trkpt lat="43.13040000" lon="0.33320000"><ele>558</ele><time>2007-10-21T14:03:15Z</time></trkpt>
<trkpt lat="43.13031700" lon="0.33388300"><ele>558</ele><time>2007-10-21T14:03:25Z</time></trkpt>
<trkpt lat="43.13050000" lon="0.33440000"><ele>557</ele><time>2007-10-21T14:03:33Z</time></trkpt>
<trkpt lat="43.13070000" lon="0.33506700"><ele>554</ele><time>2007-10-21T14:03:41Z</time></trkpt>
<trkpt lat="43.13095000" lon="0.33531700"><ele>527</ele><time>2007-10-21T14:03:50Z</time></trkpt>
<trkpt lat="43.13063300" lon="0.33581700"><ele>526</ele><time>2007-10-21T14:04:03Z</time></trkpt>
<trkpt lat="43.13041700" lon="0.33628300"><ele>506</ele><time>2007-10-21T14:04:10Z</time></trkpt>
<trkpt lat="43.12978300" lon="0.33656700"><ele>502</ele><time>2007-10-21T14:04:26Z</time></trkpt>
<trkpt lat="43.12955000" lon="0.33650000"><ele>506</ele><time>2007-10-21T14:04:33Z</time></trkpt>
<trkpt lat="43.12925000" lon="0.33666700"><ele>503</ele><time>2007-10-21T14:04:44Z</time></trkpt>
<trkpt lat="43.12885000" lon="0.33685000"><ele>502</ele><time>2007-10-21T14:04:59Z</time></trkpt>
<trkpt lat="43.12856700" lon="0.33700000"><ele>506</ele><time>2007-10-21T14:05:12Z</time></trkpt>
<trkpt lat="43.12810000" lon="0.33708300"><ele>515</ele><time>2007-10-21T14:05:32Z</time></trkpt>
<trkpt lat="43.12633300" lon="0.33671700"><ele>546</ele><time>2007-10-21T14:06:47Z</time></trkpt>
<trkpt lat="43.12553300" lon="0.33665000"><ele>550</ele><time>2007-10-21T14:07:27Z</time></trkpt>
<trkpt lat="43.12525000" lon="0.33653300"><ele>560</ele><time>2007-10-21T14:07:53Z</time></trkpt>
<trkpt lat="43.12501700" lon="0.33671700"><ele>573</ele><time>2007-10-21T14:08:14Z</time></trkpt>
<trkpt lat="43.12455000" lon="0.33685000"><ele>573</ele><time>2007-10-21T14:08:33Z</time></trkpt>
<trkpt lat="43.12435000" lon="0.33701700"><ele>567</ele><time>2007-10-21T14:08:42Z</time></trkpt>
<trkpt lat="43.12425000" lon="0.33721700"><ele>566</ele><time>2007-10-21T14:08:50Z</time></trkpt>
<trkpt lat="43.12391700" lon="0.33755000"><ele>563</ele><time>2007-10-21T14:09:05Z</time></trkpt>
<trkpt lat="43.12358300" lon="0.33798300"><ele>560</ele><time>2007-10-21T14:09:17Z</time></trkpt>
<trkpt lat="43.12306700" lon="0.33823300"><ele>559</ele><time>2007-10-21T14:09:26Z</time></trkpt>
<trkpt lat="43.12268300" lon="0.33821700"><ele>559</ele><time>2007-10-21T14:09:33Z</time></trkpt>
<trkpt lat="43.12228300" lon="0.33833300"><ele>503</ele><time>2007-10-21T14:09:46Z</time></trkpt>
<trkpt lat="43.12198300" lon="0.33828300"><ele>524</ele><time>2007-10-21T14:09:58Z</time></trkpt>
<trkpt lat="43.12175000" lon="0.33838300"><ele>527</ele><time>2007-10-21T14:10:10Z</time></trkpt>
<trkpt lat="43.12146700" lon="0.33865000"><ele>537</ele><time>2007-10-21T14:10:30Z</time></trkpt>
<trkpt lat="43.12133300" lon="0.33868300"><ele>542</ele><time>2007-10-21T14:10:43Z</time></trkpt>
<trkpt lat="43.12115000" lon="0.33866700"><ele>551</ele><time>2007-10-21T14:11:14Z</time></trkpt>
<trkpt lat="43.12080000" lon="0.33853300"><ele>573</ele><time>2007-10-21T14:12:16Z</time></trkpt>
<trkpt lat="43.12065000" lon="0.33843300"><ele>580</ele><time>2007-10-21T14:12:59Z</time></trkpt>
<trkpt lat="43.12040000" lon="0.33853300"><ele>584</ele><time>2007-10-21T14:13:41Z</time></trkpt>
<trkpt lat="43.12070000" lon="0.33840000"><ele>583</ele><time>2007-10-21T14:14:01Z</time></trkpt>
<trkpt lat="43.12095000" lon="0.33816700"><ele>581</ele><time>2007-10-21T14:14:22Z</time></trkpt>
<trkpt lat="43.12126700" lon="0.33791700"><ele>577</ele><time>2007-10-21T14:14:45Z</time></trkpt>
<trkpt lat="43.12150000" lon="0.33776700"><ele>571</ele><time>2007-10-21T14:15:12Z</time></trkpt>
<trkpt lat="43.12165000" lon="0.33761700"><ele>573</ele><time>2007-10-21T14:15:27Z</time></trkpt>
<trkpt lat="43.12141700" lon="0.33765000"><ele>598</ele><time>2007-10-21T14:16:08Z</time></trkpt>
<trkpt lat="43.12111700" lon="0.33758300"><ele>605</ele><time>2007-10-21T14:16:43Z</time></trkpt>
<trkpt lat="43.12080000" lon="0.33753300"><ele>610</ele><time>2007-10-21T14:17:24Z</time></trkpt>
<trkpt lat="43.12055000" lon="0.33755000"><ele>613</ele><time>2007-10-21T14:17:49Z</time></trkpt>
<trkpt lat="43.12041700" lon="0.33761700"><ele>613</ele><time>2007-10-21T14:18:07Z</time></trkpt>
<trkpt lat="43.12023300" lon="0.33760000"><ele>614</ele><time>2007-10-21T14:18:23Z</time></trkpt>
<trkpt lat="43.12005000" lon="0.33723300"><ele>613</ele><time>2007-10-21T14:18:42Z</time></trkpt>
<trkpt lat="43.12000000" lon="0.33645000"><ele>613</ele><time>2007-10-21T14:19:08Z</time></trkpt>
<trkpt lat="43.12001700" lon="0.33606700"><ele>612</ele><time>2007-10-21T14:19:22Z</time></trkpt>
<trkpt lat="43.11991700" lon="0.33583300"><ele>612</ele><time>2007-10-21T14:19:34Z</time></trkpt>
<trkpt lat="43.11948300" lon="0.33566700"><ele>611</ele><time>2007-10-21T14:20:00Z</time></trkpt>
<trkpt lat="43.11926700" lon="0.33545000"><ele>613</ele><time>2007-10-21T14:20:10Z</time></trkpt>
<trkpt lat="43.11741700" lon="0.33735000"><ele>595</ele><time>2007-10-21T14:20:47Z</time></trkpt>
<trkpt lat="43.11313300" lon="0.34170000"><ele>574</ele><time>2007-10-21T14:22:16Z</time></trkpt>
<trkpt lat="43.11173300" lon="0.34318300"><ele>563</ele><time>2007-10-21T14:22:45Z</time></trkpt>
<trkpt lat="43.11160000" lon="0.34371700"><ele>563</ele><time>2007-10-21T14:22:53Z</time></trkpt>
<trkpt lat="43.11163300" lon="0.34411700"><ele>557</ele><time>2007-10-21T14:23:03Z</time></trkpt>
<trkpt lat="43.11183300" lon="0.34435000"><ele>564</ele><time>2007-10-21T14:23:17Z</time></trkpt>
<trkpt lat="43.11220000" lon="0.34463300"><ele>570</ele><time>2007-10-21T14:23:39Z</time></trkpt>
<trkpt lat="43.11255000" lon="0.34508300"><ele>575</ele><time>2007-10-21T14:24:05Z</time></trkpt>
<trkpt lat="43.11276700" lon="0.34533300"><ele>580</ele><time>2007-10-21T14:24:28Z</time></trkpt>
<trkpt lat="43.11308300" lon="0.34568300"><ele>585</ele><time>2007-10-21T14:25:10Z</time></trkpt>
<trkpt lat="43.11320000" lon="0.34591700"><ele>590</ele><time>2007-10-21T14:25:40Z</time></trkpt>
<trkpt lat="43.11335000" lon="0.34603300"><ele>595</ele><time>2007-10-21T14:25:55Z</time></trkpt>
<trkpt lat="43.11375000" lon="0.34640000"><ele>600</ele><time>2007-10-21T14:26:27Z</time></trkpt>
<trkpt lat="43.11391700" lon="0.34655000"><ele>605</ele><time>2007-10-21T14:26:46Z</time></trkpt>
<trkpt lat="43.11431700" lon="0.34665000"><ele>610</ele><time>2007-10-21T14:27:11Z</time></trkpt>
<trkpt lat="43.11476700" lon="0.34671700"><ele>614</ele><time>2007-10-21T14:27:35Z</time></trkpt>
<trkpt lat="43.11488300" lon="0.34681700"><ele>612</ele><time>2007-10-21T14:28:42Z</time></trkpt>
<trkpt lat="43.11523300" lon="0.34685000"><ele>615</ele><time>2007-10-21T14:29:12Z</time></trkpt>
<trkpt lat="43.11543300" lon="0.34681700"><ele>618</ele><time>2007-10-21T14:29:40Z</time></trkpt>
<trkpt lat="43.11550000" lon="0.34701700"><ele>620</ele><time>2007-10-21T14:29:53Z</time></trkpt>
<trkpt lat="43.11555000" lon="0.34730000"><ele>620</ele><time>2007-10-21T14:30:12Z</time></trkpt>
<trkpt lat="43.11575000" lon="0.34751700"><ele>618</ele><time>2007-10-21T14:30:36Z</time></trkpt>
<trkpt lat="43.11596700" lon="0.34768300"><ele>615</ele><time>2007-10-21T14:30:57Z</time></trkpt>
<trkpt lat="43.11610000" lon="0.34780000"><ele>617</ele><time>2007-10-21T14:31:07Z</time></trkpt>
<trkpt lat="43.11618300" lon="0.34806700"><ele>619</ele><time>2007-10-21T14:31:24Z</time></trkpt>
<trkpt lat="43.11615000" lon="0.34828300"><ele>620</ele><time>2007-10-21T14:31:38Z</time></trkpt>
<trkpt lat="43.11603300" lon="0.34851700"><ele>618</ele><time>2007-10-21T14:31:50Z</time></trkpt>
<trkpt lat="43.11606700" lon="0.34880000"><ele>618</ele><time>2007-10-21T14:32:04Z</time></trkpt>
<trkpt lat="43.11570000" lon="0.34925000"><ele>620</ele><time>2007-10-21T14:32:28Z</time></trkpt>
<trkpt lat="43.11546700" lon="0.34941700"><ele>620</ele><time>2007-10-21T14:32:42Z</time></trkpt>
<trkpt lat="43.11516700" lon="0.34958300"><ele>618</ele><time>2007-10-21T14:32:55Z</time></trkpt>
<trkpt lat="43.11503300" lon="0.34963300"><ele>617</ele><time>2007-10-21T14:33:04Z</time></trkpt>
<trkpt lat="43.11538300" lon="0.35005000"><ele>613</ele><time>2007-10-21T14:33:25Z</time></trkpt>
<trkpt lat="43.11570000" lon="0.35045000"><ele>610</ele><time>2007-10-21T14:33:39Z</time></trkpt>
<trkpt lat="43.11598300" lon="0.35090000"><ele>607</ele><time>2007-10-21T14:33:55Z</time></trkpt>
<trkpt lat="43.11618300" lon="0.35176700"><ele>607</ele><time>2007-10-21T14:34:19Z</time></trkpt>
<trkpt lat="43.11621700" lon="0.35218300"><ele>607</ele><time>2007-10-21T14:34:29Z</time></trkpt>
<trkpt lat="43.11623300" lon="0.35301700"><ele>606</ele><time>2007-10-21T14:34:47Z</time></trkpt>
<trkpt lat="43.11630000" lon="0.35395000"><ele>606</ele><time>2007-10-21T14:35:06Z</time></trkpt>
<trkpt lat="43.11625000" lon="0.35425000"><ele>605</ele><time>2007-10-21T14:35:15Z</time></trkpt>
<trkpt lat="43.11595000" lon="0.35441700"><ele>605</ele><time>2007-10-21T14:35:25Z</time></trkpt>
<trkpt lat="43.11543300" lon="0.35470000"><ele>604</ele><time>2007-10-21T14:35:44Z</time></trkpt>
<trkpt lat="43.11635000" lon="0.35428300"><ele>604</ele><time>2007-10-21T14:36:28Z</time></trkpt>
<trkpt lat="43.11685000" lon="0.35358300"><ele>605</ele><time>2007-10-21T14:36:46Z</time></trkpt>
<trkpt lat="43.11791700" lon="0.35023300"><ele>599</ele><time>2007-10-21T14:37:49Z</time></trkpt>
<trkpt lat="43.11843300" lon="0.35036700"><ele>595</ele><time>2007-10-21T14:38:02Z</time></trkpt>
<trkpt lat="43.11870000" lon="0.35056700"><ele>594</ele><time>2007-10-21T14:38:09Z</time></trkpt>
<trkpt lat="43.12055000" lon="0.35016700"><ele>595</ele><time>2007-10-21T14:38:51Z</time></trkpt>
<trkpt lat="43.12098300" lon="0.35015000"><ele>595</ele><time>2007-10-21T14:39:01Z</time></trkpt>
<trkpt lat="43.12141700" lon="0.34995000"><ele>597</ele><time>2007-10-21T14:39:14Z</time></trkpt>
<trkpt lat="43.12168300" lon="0.35098300"><ele>598</ele><time>2007-10-21T14:39:38Z</time></trkpt>
<trkpt lat="43.12198300" lon="0.35183300"><ele>606</ele><time>2007-10-21T14:39:58Z</time></trkpt>
<trkpt lat="43.12218300" lon="0.35216700"><ele>610</ele><time>2007-10-21T14:40:07Z</time></trkpt>
<trkpt lat="43.12245000" lon="0.35235000"><ele>610</ele><time>2007-10-21T14:40:16Z</time></trkpt>
<trkpt lat="43.12266700" lon="0.35185000"><ele>607</ele><time>2007-10-21T14:40:29Z</time></trkpt>
<trkpt lat="43.12303300" lon="0.35055000"><ele>602</ele><time>2007-10-21T14:40:52Z</time></trkpt>
<trkpt lat="43.12356700" lon="0.34950000"><ele>599</ele><time>2007-10-21T14:42:22Z</time></trkpt>
<trkpt lat="43.12385000" lon="0.34891700"><ele>598</ele><time>2007-10-21T14:42:34Z</time></trkpt>
<trkpt lat="43.12451700" lon="0.34730000"><ele>596</ele><time>2007-10-21T14:43:03Z</time></trkpt>
<trkpt lat="43.12471700" lon="0.34670000"><ele>594</ele><time>2007-10-21T14:43:13Z</time></trkpt>
<trkpt lat="43.12518300" lon="0.34631700"><ele>594</ele><time>2007-10-21T14:43:24Z</time></trkpt>
<trkpt lat="43.12536700" lon="0.34645000"><ele>595</ele><time>2007-10-21T14:43:30Z</time></trkpt>
<trkpt lat="43.12523300" lon="0.34813300"><ele>597</ele><time>2007-10-21T14:43:56Z</time></trkpt>
<trkpt lat="43.12471700" lon="0.35065000"><ele>598</ele><time>2007-10-21T14:44:33Z</time></trkpt>
<trkpt lat="43.12470000" lon="0.35476700"><ele>598</ele><time>2007-10-21T14:45:32Z</time></trkpt>
<trkpt lat="43.12573300" lon="0.35476700"><ele>599</ele><time>2007-10-21T14:45:52Z</time></trkpt>
<trkpt lat="43.12668300" lon="0.35421700"><ele>598</ele><time>2007-10-21T14:46:11Z</time></trkpt>
<trkpt lat="43.12705000" lon="0.35380000"><ele>598</ele><time>2007-10-21T14:46:22Z</time></trkpt>
<trkpt lat="43.12750000" lon="0.35388300"><ele>597</ele><time>2007-10-21T14:46:33Z</time></trkpt>
<trkpt lat="43.12996700" lon="0.35368300"><ele>591</ele><time>2007-10-21T14:47:14Z</time></trkpt>
<trkpt lat="43.13206700" lon="0.35386700"><ele>587</ele><time>2007-10-21T14:47:47Z</time></trkpt>
<trkpt lat="43.13613300" lon="0.35303300"><ele>586</ele><time>2007-10-21T14:48:58Z</time></trkpt>
<trkpt lat="43.13716700" lon="0.35320000"><ele>585</ele><time>2007-10-21T14:49:18Z</time></trkpt>
<trkpt lat="43.13886700" lon="0.35420000"><ele>584</ele><time>2007-10-21T14:49:59Z</time></trkpt>
<trkpt lat="43.13911700" lon="0.35395000"><ele>584</ele><time>2007-10-21T14:50:07Z</time></trkpt>
<trkpt lat="43.13955000" lon="0.35240000"><ele>583</ele><time>2007-10-21T14:50:35Z</time></trkpt>
<trkpt lat="43.13911700" lon="0.35418300"><ele>585</ele><time>2007-10-21T14:51:10Z</time></trkpt>
<trkpt lat="43.13943300" lon="0.35466700"><ele>584</ele><time>2007-10-21T14:51:20Z</time></trkpt>
<trkpt lat="43.14025000" lon="0.35516700"><ele>582</ele><time>2007-10-21T14:51:37Z</time></trkpt>
<trkpt lat="43.14061700" lon="0.35541700"><ele>582</ele><time>2007-10-21T14:51:45Z</time></trkpt>
<trkpt lat="43.14108300" lon="0.35550000"><ele>581</ele><time>2007-10-21T14:51:54Z</time></trkpt>
<trkpt lat="43.14158300" lon="0.35566700"><ele>580</ele><time>2007-10-21T14:52:04Z</time></trkpt>
<trkpt lat="43.14206700" lon="0.35571700"><ele>580</ele><time>2007-10-21T14:52:14Z</time></trkpt>
<trkpt lat="43.14233300" lon="0.35583300"><ele>580</ele><time>2007-10-21T14:52:20Z</time></trkpt>
<trkpt lat="43.14278300" lon="0.35506700"><ele>578</ele><time>2007-10-21T14:52:34Z</time></trkpt>
<trkpt lat="43.14366700" lon="0.35218300"><ele>570</ele><time>2007-10-21T14:53:13Z</time></trkpt>
<trkpt lat="43.14461700" lon="0.35220000"><ele>571</ele><time>2007-10-21T14:53:33Z</time></trkpt>
<trkpt lat="43.14598300" lon="0.34908300"><ele>564</ele><time>2007-10-21T14:54:20Z</time></trkpt>
<trkpt lat="43.14605000" lon="0.34836700"><ele>561</ele><time>2007-10-21T14:54:29Z</time></trkpt>
<trkpt lat="43.14593300" lon="0.34763300"><ele>556</ele><time>2007-10-21T14:54:37Z</time></trkpt>
<trkpt lat="43.14625000" lon="0.34561700"><ele>553</ele><time>2007-10-21T14:54:55Z</time></trkpt>
<trkpt lat="43.14625000" lon="0.34510000"><ele>556</ele><time>2007-10-21T14:55:06Z</time></trkpt>
<trkpt lat="43.14630000" lon="0.34473300"><ele>555</ele><time>2007-10-21T14:55:14Z</time></trkpt>
<trkpt lat="43.14636700" lon="0.34428300"><ele>555</ele><time>2007-10-21T14:55:22Z</time></trkpt>
<trkpt lat="43.14626700" lon="0.34353300"><ele>555</ele><time>2007-10-21T14:55:34Z</time></trkpt>
<trkpt lat="43.14780000" lon="0.34270000"><ele>555</ele><time>2007-10-21T14:56:03Z</time></trkpt>
<trkpt lat="43.14816700" lon="0.34265000"><ele>551</ele><time>2007-10-21T14:56:08Z</time></trkpt>
<trkpt lat="43.14836700" lon="0.34243300"><ele>551</ele><time>2007-10-21T14:56:14Z</time></trkpt>
<trkpt lat="43.14870000" lon="0.34220000"><ele>545</ele><time>2007-10-21T14:56:22Z</time></trkpt>
<trkpt lat="43.14901700" lon="0.34198300"><ele>545</ele><time>2007-10-21T14:56:34Z</time></trkpt>
<trkpt lat="43.14925000" lon="0.34183300"><ele>545</ele><time>2007-10-21T14:56:38Z</time></trkpt>
<trkpt lat="43.14953300" lon="0.34193300"><ele>536</ele><time>2007-10-21T14:56:50Z</time></trkpt>
<trkpt lat="43.15008300" lon="0.34181700"><ele>536</ele><time>2007-10-21T14:57:12Z</time></trkpt>
<trkpt lat="43.15040000" lon="0.34151700"><ele>536</ele><time>2007-10-21T14:57:20Z</time></trkpt>
<trkpt lat="43.15065000" lon="0.34130000"><ele>525</ele><time>2007-10-21T14:57:27Z</time></trkpt>
<trkpt lat="43.15101700" lon="0.34121700"><ele>523</ele><time>2007-10-21T14:57:36Z</time></trkpt>
<trkpt lat="43.15121700" lon="0.34105000"><ele>518</ele><time>2007-10-21T14:57:42Z</time></trkpt>
<trkpt lat="43.15120000" lon="0.34073300"><ele>518</ele><time>2007-10-21T14:57:50Z</time></trkpt>
<trkpt lat="43.15135000" lon="0.34038300"><ele>518</ele><time>2007-10-21T14:57:55Z</time></trkpt>
<trkpt lat="43.15158300" lon="0.34016700"><ele>517</ele><time>2007-10-21T14:58:02Z</time></trkpt>
<trkpt lat="43.15166700" lon="0.33990000"><ele>513</ele><time>2007-10-21T14:58:10Z</time></trkpt>
<trkpt lat="43.15185000" lon="0.33970000"><ele>503</ele><time>2007-10-21T14:58:19Z</time></trkpt>
<trkpt lat="43.15201700" lon="0.33948300"><ele>499</ele><time>2007-10-21T14:58:31Z</time></trkpt>
<trkpt lat="43.15221700" lon="0.33998300"><ele>486</ele><time>2007-10-21T14:58:58Z</time></trkpt>
<trkpt lat="43.15235000" lon="0.34005000"><ele>490</ele><time>2007-10-21T14:59:14Z</time></trkpt>
<trkpt lat="43.15246700" lon="0.33988300"><ele>488</ele><time>2007-10-21T14:59:34Z</time></trkpt>
<trkpt lat="43.15260000" lon="0.33960000"><ele>492</ele><time>2007-10-21T15:00:27Z</time></trkpt>
<trkpt lat="43.15250000" lon="0.33915000"><ele>492</ele><time>2007-10-21T15:00:38Z</time></trkpt>
<trkpt lat="43.15226700" lon="0.33896700"><ele>492</ele><time>2007-10-21T15:00:49Z</time></trkpt>
<trkpt lat="43.15208300" lon="0.33871700"><ele>492</ele><time>2007-10-21T15:00:59Z</time></trkpt>
<trkpt lat="43.15196700" lon="0.33845000"><ele>492</ele><time>2007-10-21T15:01:09Z</time></trkpt>
<trkpt lat="43.15158300" lon="0.33853300"><ele>492</ele><time>2007-10-21T15:01:25Z</time></trkpt>
<trkpt lat="43.15106700" lon="0.33875000"><ele>492</ele><time>2007-10-21T15:01:45Z</time></trkpt>
<trkpt lat="43.15080000" lon="0.33860000"><ele>492</ele><time>2007-10-21T15:01:56Z</time></trkpt>
<trkpt lat="43.15046700" lon="0.33861700"><ele>492</ele><time>2007-10-21T15:02:06Z</time></trkpt>
<trkpt lat="43.15008300" lon="0.33846700"><ele>492</ele><time>2007-10-21T15:02:23Z</time></trkpt>
<trkpt lat="43.14953300" lon="0.33858300"><ele>494</ele><time>2007-10-21T15:02:48Z</time></trkpt>
<trkpt lat="43.14910000" lon="0.33871700"><ele>494</ele><time>2007-10-21T15:03:07Z</time></trkpt>
<trkpt lat="43.14840000" lon="0.33890000"><ele>494</ele><time>2007-10-21T15:03:38Z</time></trkpt>
<trkpt lat="43.14810000" lon="0.33896700"><ele>494</ele><time>2007-10-21T15:03:51Z</time></trkpt>
<trkpt lat="43.14775000" lon="0.33920000"><ele>494</ele><time>2007-10-21T15:04:04Z</time></trkpt>
<trkpt lat="43.14735000" lon="0.33955000"><ele>494</ele><time>2007-10-21T15:04:15Z</time></trkpt>
<trkpt lat="43.14711700" lon="0.33956700"><ele>494</ele><time>2007-10-21T15:04:21Z</time></trkpt>
<trkpt lat="43.14676700" lon="0.33973300"><ele>494</ele><time>2007-10-21T15:04:31Z</time></trkpt>
<trkpt lat="43.14646700" lon="0.33981700"><ele>494</ele><time>2007-10-21T15:04:38Z</time></trkpt>
<trkpt lat="43.14591700" lon="0.33976700"><ele>498</ele><time>2007-10-21T15:04:55Z</time></trkpt>
<trkpt lat="43.14553300" lon="0.33963300"><ele>441</ele><time>2007-10-21T15:05:06Z</time></trkpt>
<trkpt lat="43.14505000" lon="0.33938300"><ele>441</ele><time>2007-10-21T15:05:26Z</time></trkpt>
<trkpt lat="43.14481700" lon="0.33930000"><ele>441</ele><time>2007-10-21T15:05:33Z</time></trkpt>
<trkpt lat="43.14470000" lon="0.33906700"><ele>443</ele><time>2007-10-21T15:05:44Z</time></trkpt>
<trkpt lat="43.14445000" lon="0.33890000"><ele>448</ele><time>2007-10-21T15:05:57Z</time></trkpt>
<trkpt lat="43.14420000" lon="0.33870000"><ele>450</ele><time>2007-10-21T15:06:08Z</time></trkpt>
<trkpt lat="43.14371700" lon="0.33850000"><ele>450</ele><time>2007-10-21T15:06:27Z</time></trkpt>
<trkpt lat="43.14340000" lon="0.33863300"><ele>450</ele><time>2007-10-21T15:06:36Z</time></trkpt>
<trkpt lat="43.14320000" lon="0.33861700"><ele>450</ele><time>2007-10-21T15:06:44Z</time></trkpt>
<trkpt lat="43.14308300" lon="0.33840000"><ele>455</ele><time>2007-10-21T15:06:54Z</time></trkpt>
<trkpt lat="43.14290000" lon="0.33840000"><ele>455</ele><time>2007-10-21T15:07:01Z</time></trkpt>
<trkpt lat="43.14278300" lon="0.33801700"><ele>485</ele><time>2007-10-21T15:07:23Z</time></trkpt>
<trkpt lat="43.14266700" lon="0.33768300"><ele>485</ele><time>2007-10-21T15:07:41Z</time></trkpt>
<trkpt lat="43.14256700" lon="0.33735000"><ele>490</ele><time>2007-10-21T15:08:05Z</time></trkpt>
<trkpt lat="43.14251700" lon="0.33690000"><ele>499</ele><time>2007-10-21T15:08:36Z</time></trkpt>
<trkpt lat="43.14255000" lon="0.33661700"><ele>511</ele><time>2007-10-21T15:08:58Z</time></trkpt>
<trkpt lat="43.14270000" lon="0.33633300"><ele>526</ele><time>2007-10-21T15:09:27Z</time></trkpt>
<trkpt lat="43.14300000" lon="0.33601700"><ele>544</ele><time>2007-10-21T15:10:00Z</time></trkpt>
<trkpt lat="43.14326700" lon="0.33628300"><ele>554</ele><time>2007-10-21T15:10:17Z</time></trkpt>
<trkpt lat="43.14348300" lon="0.33650000"><ele>549</ele><time>2007-10-21T15:10:29Z</time></trkpt>
<trkpt lat="43.14361700" lon="0.33668300"><ele>551</ele><time>2007-10-21T15:10:38Z</time></trkpt>
<trkpt lat="43.14398300" lon="0.33708300"><ele>549</ele><time>2007-10-21T15:10:59Z</time></trkpt>
<trkpt lat="43.14420000" lon="0.33711700"><ele>524</ele><time>2007-10-21T15:11:09Z</time></trkpt>
<trkpt lat="43.14448300" lon="0.33726700"><ele>531</ele><time>2007-10-21T15:11:31Z</time></trkpt>
<trkpt lat="43.14486700" lon="0.33710000"><ele>541</ele><time>2007-10-21T15:11:55Z</time></trkpt>
<trkpt lat="43.14533300" lon="0.33691700"><ele>562</ele><time>2007-10-21T15:12:32Z</time></trkpt>
<trkpt lat="43.14556700" lon="0.33683300"><ele>570</ele><time>2007-10-21T15:12:54Z</time></trkpt>
<trkpt lat="43.14578300" lon="0.33663300"><ele>571</ele><time>2007-10-21T15:13:11Z</time></trkpt>
<trkpt lat="43.14596700" lon="0.33611700"><ele>575</ele><time>2007-10-21T15:13:59Z</time></trkpt>
<trkpt lat="43.14605000" lon="0.33583300"><ele>580</ele><time>2007-10-21T15:14:18Z</time></trkpt>
<trkpt lat="43.14606700" lon="0.33553300"><ele>584</ele><time>2007-10-21T15:14:41Z</time></trkpt>
<trkpt lat="43.14611700" lon="0.33523300"><ele>595</ele><time>2007-10-21T15:15:01Z</time></trkpt>
<trkpt lat="43.14610000" lon="0.33498300"><ele>602</ele><time>2007-10-21T15:15:21Z</time></trkpt>
<trkpt lat="43.14601700" lon="0.33455000"><ele>600</ele><time>2007-10-21T15:15:45Z</time></trkpt>
<trkpt lat="43.14593300" lon="0.33423300"><ele>604</ele><time>2007-10-21T15:16:07Z</time></trkpt>
<trkpt lat="43.14581700" lon="0.33410000"><ele>607</ele><time>2007-10-21T15:16:23Z</time></trkpt>
<trkpt lat="43.14570000" lon="0.33383300"><ele>609</ele><time>2007-10-21T15:16:48Z</time></trkpt>
<trkpt lat="43.14560000" lon="0.33366700"><ele>618</ele><time>2007-10-21T15:17:07Z</time></trkpt>
<trkpt lat="43.14553300" lon="0.33346700"><ele>630</ele><time>2007-10-21T15:17:27Z</time></trkpt>
<trkpt lat="43.14538300" lon="0.33325000"><ele>629</ele><time>2007-10-21T15:17:46Z</time></trkpt>
<trkpt lat="43.14535000" lon="0.33303300"><ele>630</ele><time>2007-10-21T15:17:59Z</time></trkpt>
<trkpt lat="43.14533300" lon="0.33275000"><ele>625</ele><time>2007-10-21T15:18:11Z</time></trkpt>
<trkpt lat="43.14530000" lon="0.33255000"><ele>621</ele><time>2007-10-21T15:18:23Z</time></trkpt>
<trkpt lat="43.14540000" lon="0.33231700"><ele>626</ele><time>2007-10-21T15:18:35Z</time></trkpt>
<trkpt lat="43.14556700" lon="0.33216700"><ele>627</ele><time>2007-10-21T15:18:45Z</time></trkpt>
<trkpt lat="43.14581700" lon="0.33188300"><ele>626</ele><time>2007-10-21T15:18:59Z</time></trkpt>
<trkpt lat="43.14793300" lon="0.32963300"><ele>597</ele><time>2007-10-21T15:20:08Z</time></trkpt>
<trkpt lat="43.14788300" lon="0.32945000"><ele>591</ele><time>2007-10-21T15:20:19Z</time></trkpt>
<trkpt lat="43.14870000" lon="0.32916700"><ele>583</ele><time>2007-10-21T15:20:35Z</time></trkpt>
<trkpt lat="43.14773300" lon="0.32788300"><ele>579</ele><time>2007-10-21T15:21:41Z</time></trkpt>
<trkpt lat="43.14748300" lon="0.32718300"><ele>578</ele><time>2007-10-21T15:22:04Z</time></trkpt>
<trkpt lat="43.14671700" lon="0.32431700"><ele>569</ele><time>2007-10-21T15:22:50Z</time></trkpt>
<trkpt lat="43.14630000" lon="0.32353300"><ele>568</ele><time>2007-10-21T15:23:01Z</time></trkpt>
<trkpt lat="43.14620000" lon="0.32308300"><ele>567</ele><time>2007-10-21T15:23:07Z</time></trkpt>
<trkpt lat="43.14595000" lon="0.32291700"><ele>568</ele><time>2007-10-21T15:23:12Z</time></trkpt>
<trkpt lat="43.14688300" lon="0.32150000"><ele>566</ele><time>2007-10-21T15:23:35Z</time></trkpt>
<trkpt lat="43.15085000" lon="0.32001700"><ele>564</ele><time>2007-10-21T15:24:35Z</time></trkpt>
<trkpt lat="43.15160000" lon="0.31985000"><ele>564</ele><time>2007-10-21T15:24:47Z</time></trkpt>
<trkpt lat="43.15208300" lon="0.31973300"><ele>564</ele><time>2007-10-21T15:24:57Z</time></trkpt>
<trkpt lat="43.15145000" lon="0.31778300"><ele>555</ele><time>2007-10-21T15:25:21Z</time></trkpt>
<trkpt lat="43.15158300" lon="0.31655000"><ele>561</ele><time>2007-10-21T15:25:37Z</time></trkpt>
<trkpt lat="43.15183300" lon="0.31605000"><ele>561</ele><time>2007-10-21T15:25:48Z</time></trkpt>
<trkpt lat="43.15561700" lon="0.31286700"><ele>559</ele><time>2007-10-21T15:27:05Z</time></trkpt>
<trkpt lat="43.15598300" lon="0.31223300"><ele>558</ele><time>2007-10-21T15:27:14Z</time></trkpt>
<trkpt lat="43.15736700" lon="0.30906700"><ele>556</ele><time>2007-10-21T15:27:55Z</time></trkpt>
<trkpt lat="43.15773300" lon="0.30858300"><ele>556</ele><time>2007-10-21T15:28:03Z</time></trkpt>
<trkpt lat="43.15823300" lon="0.30775000"><ele>554</ele><time>2007-10-21T15:28:15Z</time></trkpt>
<trkpt lat="43.15881700" lon="0.30596700"><ele>550</ele><time>2007-10-21T15:28:34Z</time></trkpt>
<trkpt lat="43.15930000" lon="0.30395000"><ele>529</ele><time>2007-10-21T15:28:52Z</time></trkpt>
<trkpt lat="43.15923300" lon="0.30191700"><ele>529</ele><time>2007-10-21T15:29:12Z</time></trkpt>
<trkpt lat="43.15923300" lon="0.30151700"><ele>529</ele><time>2007-10-21T15:29:18Z</time></trkpt>
<trkpt lat="43.15916700" lon="0.30100000"><ele>529</ele><time>2007-10-21T15:29:25Z</time></trkpt>
<trkpt lat="43.15930000" lon="0.29981700"><ele>529</ele><time>2007-10-21T15:29:40Z</time></trkpt>
<trkpt lat="43.15943300" lon="0.29951700"><ele>525</ele><time>2007-10-21T15:29:46Z</time></trkpt>
<trkpt lat="43.15958300" lon="0.29926700"><ele>493</ele><time>2007-10-21T15:29:51Z</time></trkpt>
<trkpt lat="43.15991700" lon="0.29866700"><ele>507</ele><time>2007-10-21T15:30:10Z</time></trkpt>
<trkpt lat="43.16021700" lon="0.29803300"><ele>511</ele><time>2007-10-21T15:30:27Z</time></trkpt>
<trkpt lat="43.16041700" lon="0.29728300"><ele>516</ele><time>2007-10-21T15:30:44Z</time></trkpt>
<trkpt lat="43.16240000" lon="0.29460000"><ele>509</ele><time>2007-10-21T15:31:27Z</time></trkpt>
<trkpt lat="43.16255000" lon="0.29428300"><ele>488</ele><time>2007-10-21T15:31:38Z</time></trkpt>
<trkpt lat="43.16255000" lon="0.29398300"><ele>487</ele><time>2007-10-21T15:31:45Z</time></trkpt>
<trkpt lat="43.16255000" lon="0.29381700"><ele>488</ele><time>2007-10-21T15:32:19Z</time></trkpt>
<trkpt lat="43.16251700" lon="0.29325000"><ele>495</ele><time>2007-10-21T15:33:52Z</time></trkpt>
<trkpt lat="43.16250000" lon="0.29295000"><ele>490</ele><time>2007-10-21T15:34:48Z</time></trkpt>
<trkpt lat="43.16261700" lon="0.29263300"><ele>493</ele><time>2007-10-21T15:35:02Z</time></trkpt>
<trkpt lat="43.16270000" lon="0.29233300"><ele>491</ele><time>2007-10-21T15:35:15Z</time></trkpt>
<trkpt lat="43.16256700" lon="0.29178300"><ele>485</ele><time>2007-10-21T15:35:28Z</time></trkpt>
<trkpt lat="43.16261700" lon="0.29080000"><ele>473</ele><time>2007-10-21T15:35:43Z</time></trkpt>
<trkpt lat="43.16296700" lon="0.28846700"><ele>446</ele><time>2007-10-21T15:36:14Z</time></trkpt>
<trkpt lat="43.16298300" lon="0.28786700"><ele>438</ele><time>2007-10-21T15:36:22Z</time></trkpt>
<trkpt lat="43.16308300" lon="0.28715000"><ele>432</ele><time>2007-10-21T15:36:31Z</time></trkpt>
<trkpt lat="43.16318300" lon="0.28660000"><ele>429</ele><time>2007-10-21T15:36:43Z</time></trkpt>
<trkpt lat="43.16316700" lon="0.28623300"><ele>429</ele><time>2007-10-21T15:36:49Z</time></trkpt>
<trkpt lat="43.16295000" lon="0.28526700"><ele>424</ele><time>2007-10-21T15:37:02Z</time></trkpt>
<trkpt lat="43.16286700" lon="0.28495000"><ele>423</ele><time>2007-10-21T15:37:09Z</time></trkpt>
<trkpt lat="43.16301700" lon="0.28513300"><ele>421</ele><time>2007-10-21T15:37:24Z</time></trkpt>
<trkpt lat="43.16350000" lon="0.28581700"><ele>413</ele><time>2007-10-21T15:37:41Z</time></trkpt>
<trkpt lat="43.16376700" lon="0.28610000"><ele>411</ele><time>2007-10-21T15:37:50Z</time></trkpt>
<trkpt lat="43.16401700" lon="0.28668300"><ele>405</ele><time>2007-10-21T15:38:02Z</time></trkpt>
<trkpt lat="43.16420000" lon="0.28625000"><ele>396</ele><time>2007-10-21T15:38:11Z</time></trkpt>
<trkpt lat="43.16431700" lon="0.28550000"><ele>388</ele><time>2007-10-21T15:38:21Z</time></trkpt>
<trkpt lat="43.16416700" lon="0.28445000"><ele>382</ele><time>2007-10-21T15:38:37Z</time></trkpt>
<trkpt lat="43.16408300" lon="0.28388300"><ele>377</ele><time>2007-10-21T15:38:48Z</time></trkpt>
<trkpt lat="43.16398300" lon="0.28363300"><ele>375</ele><time>2007-10-21T15:38:54Z</time></trkpt>
<trkpt lat="43.16381700" lon="0.28308300"><ele>366</ele><time>2007-10-21T15:39:20Z</time></trkpt>
<trkpt lat="43.16336700" lon="0.28250000"><ele>358</ele><time>2007-10-21T15:39:32Z</time></trkpt>
<trkpt lat="43.16303300" lon="0.28223300"><ele>357</ele><time>2007-10-21T15:39:44Z</time></trkpt>
<trkpt lat="43.16233300" lon="0.28210000"><ele>339</ele><time>2007-10-21T15:40:04Z</time></trkpt>
<trkpt lat="43.16250000" lon="0.28181700"><ele>345</ele><time>2007-10-21T15:40:13Z</time></trkpt>
<trkpt lat="43.16295000" lon="0.28030000"><ele>336</ele><time>2007-10-21T15:40:41Z</time></trkpt>
<trkpt lat="43.16311700" lon="0.27980000"><ele>335</ele><time>2007-10-21T15:40:49Z</time></trkpt>
<trkpt lat="43.16310000" lon="0.27898300"><ele>334</ele><time>2007-10-21T15:41:01Z</time></trkpt>
<trkpt lat="43.16333300" lon="0.27891700"><ele>336</ele><time>2007-10-21T15:41:09Z</time></trkpt>
<trkpt lat="43.16370000" lon="0.27960000"><ele>340</ele><time>2007-10-21T15:41:31Z</time></trkpt>
<trkpt lat="43.16408300" lon="0.28055000"><ele>343</ele><time>2007-10-21T15:42:00Z</time></trkpt>
<trkpt lat="43.16426700" lon="0.28086700"><ele>345</ele><time>2007-10-21T15:42:12Z</time></trkpt>
<trkpt lat="43.16481700" lon="0.28141700"><ele>347</ele><time>2007-10-21T15:42:36Z</time></trkpt>
<trkpt lat="43.16505000" lon="0.28196700"><ele>350</ele><time>2007-10-21T15:42:54Z</time></trkpt>
<trkpt lat="43.16530000" lon="0.28286700"><ele>351</ele><time>2007-10-21T15:43:17Z</time></trkpt>
<trkpt lat="43.16551700" lon="0.28336700"><ele>353</ele><time>2007-10-21T15:43:33Z</time></trkpt>
<trkpt lat="43.16571700" lon="0.28465000"><ele>350</ele><time>2007-10-21T15:44:06Z</time></trkpt>
<trkpt lat="43.16590000" lon="0.28595000"><ele>356</ele><time>2007-10-21T15:44:35Z</time></trkpt>
<trkpt lat="43.16570000" lon="0.28620000"><ele>359</ele><time>2007-10-21T15:44:41Z</time></trkpt>
<trkpt lat="43.16515000" lon="0.28656700"><ele>357</ele><time>2007-10-21T15:44:52Z</time></trkpt>
<trkpt lat="43.16535000" lon="0.28678300"><ele>364</ele><time>2007-10-21T15:44:58Z</time></trkpt>
<trkpt lat="43.16555000" lon="0.28701700"><ele>363</ele><time>2007-10-21T15:45:06Z</time></trkpt>
<trkpt lat="43.16563300" lon="0.28748300"><ele>372</ele><time>2007-10-21T15:45:26Z</time></trkpt>
<trkpt lat="43.16585000" lon="0.28801700"><ele>384</ele><time>2007-10-21T15:45:54Z</time></trkpt>
<trkpt lat="43.16596700" lon="0.28831700"><ele>387</ele><time>2007-10-21T15:46:13Z</time></trkpt>
<trkpt lat="43.16600000" lon="0.28850000"><ele>392</ele><time>2007-10-21T15:46:24Z</time></trkpt>
<trkpt lat="43.16616700" lon="0.28945000"><ele>401</ele><time>2007-10-21T15:47:00Z</time></trkpt>
<trkpt lat="43.16618300" lon="0.29030000"><ele>407</ele><time>2007-10-21T15:47:27Z</time></trkpt>
<trkpt lat="43.16643300" lon="0.29088300"><ele>385</ele><time>2007-10-21T15:47:43Z</time></trkpt>
<trkpt lat="43.16646700" lon="0.29140000"><ele>386</ele><time>2007-10-21T15:48:00Z</time></trkpt>
<trkpt lat="43.16636700" lon="0.29181700"><ele>387</ele><time>2007-10-21T15:48:12Z</time></trkpt>
<trkpt lat="43.16640000" lon="0.29305000"><ele>393</ele><time>2007-10-21T15:48:47Z</time></trkpt>
<trkpt lat="43.16646700" lon="0.29346700"><ele>398</ele><time>2007-10-21T15:49:03Z</time></trkpt>
<trkpt lat="43.16656700" lon="0.29398300"><ele>406</ele><time>2007-10-21T15:49:25Z</time></trkpt>
<trkpt lat="43.16658300" lon="0.29433300"><ele>412</ele><time>2007-10-21T15:49:40Z</time></trkpt>
<trkpt lat="43.16660000" lon="0.29486700"><ele>416</ele><time>2007-10-21T15:49:57Z</time></trkpt>
<trkpt lat="43.16661700" lon="0.29521700"><ele>416</ele><time>2007-10-21T15:50:08Z</time></trkpt>
<trkpt lat="43.16661700" lon="0.29553300"><ele>420</ele><time>2007-10-21T15:50:20Z</time></trkpt>
<trkpt lat="43.16676700" lon="0.29600000"><ele>419</ele><time>2007-10-21T15:50:37Z</time></trkpt>
<trkpt lat="43.16711700" lon="0.29665000"><ele>420</ele><time>2007-10-21T15:51:02Z</time></trkpt>
<trkpt lat="43.16746700" lon="0.29736700"><ele>425</ele><time>2007-10-21T15:51:29Z</time></trkpt>
<trkpt lat="43.16765000" lon="0.29761700"><ele>427</ele><time>2007-10-21T15:51:39Z</time></trkpt>
<trkpt lat="43.16771700" lon="0.29806700"><ele>436</ele><time>2007-10-21T15:52:03Z</time></trkpt>
<trkpt lat="43.16781700" lon="0.29836700"><ele>447</ele><time>2007-10-21T15:52:23Z</time></trkpt>
<trkpt lat="43.16783300" lon="0.29856700"><ele>463</ele><time>2007-10-21T15:52:43Z</time></trkpt>
<trkpt lat="43.16790000" lon="0.29876700"><ele>477</ele><time>2007-10-21T15:53:12Z</time></trkpt>
<trkpt lat="43.16798300" lon="0.29903300"><ele>492</ele><time>2007-10-21T15:53:39Z</time></trkpt>
<trkpt lat="43.16803300" lon="0.29926700"><ele>499</ele><time>2007-10-21T15:53:57Z</time></trkpt>
<trkpt lat="43.16811700" lon="0.29948300"><ele>504</ele><time>2007-10-21T15:54:20Z</time></trkpt>
<trkpt lat="43.16821700" lon="0.29975000"><ele>509</ele><time>2007-10-21T15:54:54Z</time></trkpt>
<trkpt lat="43.16828300" lon="0.29993300"><ele>516</ele><time>2007-10-21T15:55:18Z</time></trkpt>
<trkpt lat="43.16830000" lon="0.30016700"><ele>524</ele><time>2007-10-21T15:55:38Z</time></trkpt>
<trkpt lat="43.16845000" lon="0.30033300"><ele>535</ele><time>2007-10-21T15:56:12Z</time></trkpt>
<trkpt lat="43.16856700" lon="0.30056700"><ele>530</ele><time>2007-10-21T15:56:49Z</time></trkpt>
<trkpt lat="43.16865000" lon="0.30075000"><ele>524</ele><time>2007-10-21T15:57:08Z</time></trkpt>
<trkpt lat="43.16865000" lon="0.30095000"><ele>530</ele><time>2007-10-21T15:57:28Z</time></trkpt>
<trkpt lat="43.16881700" lon="0.30130000"><ele>533</ele><time>2007-10-21T15:58:05Z</time></trkpt>
<trkpt lat="43.16895000" lon="0.30143300"><ele>533</ele><time>2007-10-21T15:58:31Z</time></trkpt>
<trkpt lat="43.16910000" lon="0.30126700"><ele>541</ele><time>2007-10-21T15:59:05Z</time></trkpt>
<trkpt lat="43.16920000" lon="0.30088300"><ele>547</ele><time>2007-10-21T15:59:28Z</time></trkpt>
<trkpt lat="43.16928300" lon="0.30061700"><ele>543</ele><time>2007-10-21T15:59:39Z</time></trkpt>
<trkpt lat="43.16935000" lon="0.30036700"><ele>539</ele><time>2007-10-21T15:59:51Z</time></trkpt>
<trkpt lat="43.16936700" lon="0.30000000"><ele>544</ele><time>2007-10-21T16:00:07Z</time></trkpt>
<trkpt lat="43.16938300" lon="0.29968300"><ele>558</ele><time>2007-10-21T16:00:23Z</time></trkpt>
<trkpt lat="43.16943300" lon="0.29948300"><ele>557</ele><time>2007-10-21T16:00:36Z</time></trkpt>
<trkpt lat="43.16958300" lon="0.29958300"><ele>543</ele><time>2007-10-21T16:01:24Z</time></trkpt>
<trkpt lat="43.16970000" lon="0.29985000"><ele>541</ele><time>2007-10-21T16:02:03Z</time></trkpt>
<trkpt lat="43.16976700" lon="0.30003300"><ele>551</ele><time>2007-10-21T16:02:31Z</time></trkpt>
<trkpt lat="43.16988300" lon="0.30021700"><ele>554</ele><time>2007-10-21T16:02:53Z</time></trkpt>
<trkpt lat="43.16996700" lon="0.30045000"><ele>556</ele><time>2007-10-21T16:03:17Z</time></trkpt>
<trkpt lat="43.17008300" lon="0.30076700"><ele>565</ele><time>2007-10-21T16:03:47Z</time></trkpt>
<trkpt lat="43.17018300" lon="0.30106700"><ele>568</ele><time>2007-10-21T16:04:12Z</time></trkpt>
<trkpt lat="43.17025000" lon="0.30126700"><ele>570</ele><time>2007-10-21T16:04:31Z</time></trkpt>
<trkpt lat="43.17038300" lon="0.30135000"><ele>577</ele><time>2007-10-21T16:05:03Z</time></trkpt>
<trkpt lat="43.17050000" lon="0.30130000"><ele>577</ele><time>2007-10-21T16:06:19Z</time></trkpt>
<trkpt lat="43.17060000" lon="0.30111700"><ele>577</ele><time>2007-10-21T16:06:55Z</time></trkpt>
<trkpt lat="43.17075000" lon="0.30098300"><ele>577</ele><time>2007-10-21T16:07:24Z</time></trkpt>
<trkpt lat="43.17095000" lon="0.30096700"><ele>577</ele><time>2007-10-21T16:07:48Z</time></trkpt>
<trkpt lat="43.17143300" lon="0.30106700"><ele>567</ele><time>2007-10-21T16:08:17Z</time></trkpt>
<trkpt lat="43.17188300" lon="0.30125000"><ele>559</ele><time>2007-10-21T16:08:39Z</time></trkpt>
<trkpt lat="43.17216700" lon="0.30131700"><ele>555</ele><time>2007-10-21T16:08:51Z</time></trkpt>
<trkpt lat="43.17223300" lon="0.29861700"><ele>538</ele><time>2007-10-21T16:09:35Z</time></trkpt>
<trkpt lat="43.17223300" lon="0.29680000"><ele>536</ele><time>2007-10-21T16:10:03Z</time></trkpt>
<trkpt lat="43.17266700" lon="0.29383300"><ele>534</ele><time>2007-10-21T16:10:49Z</time></trkpt>
<trkpt lat="43.17271700" lon="0.29306700"><ele>533</ele><time>2007-10-21T16:11:01Z</time></trkpt>
<trkpt lat="43.17268300" lon="0.29238300"><ele>532</ele><time>2007-10-21T16:11:10Z</time></trkpt>
<trkpt lat="43.17246700" lon="0.29093300"><ele>524</ele><time>2007-10-21T16:11:25Z</time></trkpt>
<trkpt lat="43.17256700" lon="0.29038300"><ele>523</ele><time>2007-10-21T16:11:30Z</time></trkpt>
<trkpt lat="43.17296700" lon="0.29053300"><ele>524</ele><time>2007-10-21T16:11:40Z</time></trkpt>
<trkpt lat="43.17346700" lon="0.29075000"><ele>532</ele><time>2007-10-21T16:12:07Z</time></trkpt>
<trkpt lat="43.17390000" lon="0.29086700"><ele>534</ele><time>2007-10-21T16:12:27Z</time></trkpt>
<trkpt lat="43.17540000" lon="0.29155000"><ele>532</ele><time>2007-10-21T16:13:25Z</time></trkpt>
<trkpt lat="43.17571700" lon="0.29161700"><ele>532</ele><time>2007-10-21T16:13:38Z</time></trkpt>
<trkpt lat="43.17595000" lon="0.29066700"><ele>528</ele><time>2007-10-21T16:13:53Z</time></trkpt>
<trkpt lat="43.17630000" lon="0.28955000"><ele>523</ele><time>2007-10-21T16:14:06Z</time></trkpt>
<trkpt lat="43.17666700" lon="0.28716700"><ele>516</ele><time>2007-10-21T16:14:29Z</time></trkpt>
<trkpt lat="43.17686700" lon="0.28675000"><ele>518</ele><time>2007-10-21T16:14:37Z</time></trkpt>
</trkseg></trk></gpx>